sensor_id;sensor_type;location;lat;lon;timestamp;temperature;humidity
13223;DHT22;6676;45.192;5.722;2023-09-08T00:01:37;22.60;99.90
13223;DHT22;6676;45.192;5.722;2023-09-08T00:04:29;22.50;99.90
13223;DHT22;6676;45.192;5.722;2023-09-08T00:07:23;22.50;99.90
13223;DHT22;6676;45.192;5.722;2023-09-08T00:10:14;22.60;99.90
13223;DHT22;6676;45.192;5.722;2023-09-08T00:13:05;22.60;99.90
13223;DHT22;6676;45.192;5.722;2023-09-08T00:15:57;22.60;99.90
13223;DHT22;6676;45.192;5.722;2023-09-08T00:18:49;22.60;99.90
13223;DHT22;6676;45.192;5.722;2023-09-08T00:21:40;22.60;99.90
13223;DHT22;6676;45.192;5.722;2023-09-08T00:24:32;22.60;99.90
13223;DHT22;6676;45.192;5.722;2023-09-08T00:27:24;22.60;99.90
13223;DHT22;6676;45.192;5.722;2023-09-08T00:30:15;22.40;99.90
13223;DHT22;6676;45.192;5.722;2023-09-08T00:33:07;22.40;99.90
13223;DHT22;6676;45.192;5.722;2023-09-08T00:35:59;22.30;99.90
13223;DHT22;6676;45.192;5.722;2023-09-08T00:38:50;22.40;99.90
13223;DHT22;6676;45.192;5.722;2023-09-08T00:41:42;22.30;99.90
13223;DHT22;6676;45.192;5.722;2023-09-08T00:44:34;22.20;99.90
13223;DHT22;6676;45.192;5.722;2023-09-08T00:47:25;22.20;99.90
13223;DHT22;6676;45.192;5.722;2023-09-08T00:50:17;22.20;99.90
13223;DHT22;6676;45.192;5.722;2023-09-08T00:53:10;22.20;99.90
13223;DHT22;6676;45.192;5.722;2023-09-08T00:56:02;22.10;99.90
13223;DHT22;6676;45.192;5.722;2023-09-08T00:58:53;22.10;99.90
13223;DHT22;6676;45.192;5.722;2023-09-08T01:01:45;22.20;99.90
13223;DHT22;6676;45.192;5.722;2023-09-08T01:04:36;22.20;99.90
13223;DHT22;6676;45.192;5.722;2023-09-08T01:07:31;22.20;99.90
13223;DHT22;6676;45.192;5.722;2023-09-08T01:10:24;22.10;99.90
13223;DHT22;6676;45.192;5.722;2023-09-08T01:13:15;22.10;99.90
13223;DHT22;6676;45.192;5.722;2023-09-08T01:16:06;22.10;99.90
13223;DHT22;6676;45.192;5.722;2023-09-08T01:18:59;22.00;99.90
13223;DHT22;6676;45.192;5.722;2023-09-08T01:25:33;22.00;99.90
13223;DHT22;6676;45.192;5.722;2023-09-08T01:28:26;22.00;99.90
13223;DHT22;6676;45.192;5.722;2023-09-08T01:31:18;22.00;99.90
13223;DHT22;6676;45.192;5.722;2023-09-08T01:34:11;22.00;99.90
13223;DHT22;6676;45.192;5.722;2023-09-08T01:37:03;22.00;99.90
13223;DHT22;6676;45.192;5.722;2023-09-08T01:39:54;22.10;99.90
13223;DHT22;6676;45.192;5.722;2023-09-08T01:42:47;22.10;99.90
13223;DHT22;6676;45.192;5.722;2023-09-08T01:45:39;22.00;99.90
13223;DHT22;6676;45.192;5.722;2023-09-08T01:48:31;22.00;99.90
13223;DHT22;6676;45.192;5.722;2023-09-08T01:51:22;22.00;99.90
13223;DHT22;6676;45.192;5.722;2023-09-08T01:54:14;22.00;99.90
13223;DHT22;6676;45.192;5.722;2023-09-08T01:57:06;22.00;99.90
13223;DHT22;6676;45.192;5.722;2023-09-08T01:59:57;22.00;99.90
13223;DHT22;6676;45.192;5.722;2023-09-08T02:02:49;21.90;99.90
13223;DHT22;6676;45.192;5.722;2023-09-08T02:05:40;21.90;99.90
13223;DHT22;6676;45.192;5.722;2023-09-08T02:08:32;21.90;99.90
13223;DHT22;6676;45.192;5.722;2023-09-08T02:11:24;21.90;99.90
13223;DHT22;6676;45.192;5.722;2023-09-08T02:14:15;21.90;99.90
13223;DHT22;6676;45.192;5.722;2023-09-08T02:17:08;21.80;99.90
13223;DHT22;6676;45.192;5.722;2023-09-08T02:20:00;21.80;99.90
13223;DHT22;6676;45.192;5.722;2023-09-08T02:22:54;21.90;99.90
13223;DHT22;6676;45.192;5.722;2023-09-08T02:25:46;21.80;99.90
13223;DHT22;6676;45.192;5.722;2023-09-08T02:28:37;21.80;99.90
13223;DHT22;6676;45.192;5.722;2023-09-08T02:31:29;21.90;99.90
13223;DHT22;6676;45.192;5.722;2023-09-08T02:34:21;21.80;99.90
13223;DHT22;6676;45.192;5.722;2023-09-08T02:37:13;21.70;99.90
13223;DHT22;6676;45.192;5.722;2023-09-08T02:40:06;21.60;99.90
13223;DHT22;6676;45.192;5.722;2023-09-08T02:42:59;21.50;99.90
13223;DHT22;6676;45.192;5.722;2023-09-08T02:45:50;21.50;99.90
13223;DHT22;6676;45.192;5.722;2023-09-08T02:48:42;21.50;99.90
13223;DHT22;6676;45.192;5.722;2023-09-08T02:51:34;21.60;99.90
13223;DHT22;6676;45.192;5.722;2023-09-08T02:54:26;21.60;99.90
13223;DHT22;6676;45.192;5.722;2023-09-08T02:57:19;21.60;99.90
13223;DHT22;6676;45.192;5.722;2023-09-08T03:00:12;21.60;99.90
13223;DHT22;6676;45.192;5.722;2023-09-08T03:03:04;21.60;99.90
13223;DHT22;6676;45.192;5.722;2023-09-08T03:05:56;21.60;99.90
13223;DHT22;6676;45.192;5.722;2023-09-08T03:08:49;21.60;99.90
13223;DHT22;6676;45.192;5.722;2023-09-08T03:11:44;21.60;99.90
13223;DHT22;6676;45.192;5.722;2023-09-08T03:14:36;21.60;99.90
13223;DHT22;6676;45.192;5.722;2023-09-08T03:17:28;21.60;99.90
13223;DHT22;6676;45.192;5.722;2023-09-08T03:20:20;21.70;99.90
13223;DHT22;6676;45.192;5.722;2023-09-08T03:23:11;21.70;99.90
13223;DHT22;6676;45.192;5.722;2023-09-08T03:26:03;21.60;99.90
13223;DHT22;6676;45.192;5.722;2023-09-08T03:28:54;21.50;99.90
13223;DHT22;6676;45.192;5.722;2023-09-08T03:31:46;21.50;99.90
13223;DHT22;6676;45.192;5.722;2023-09-08T03:34:37;21.50;99.90
13223;DHT22;6676;45.192;5.722;2023-09-08T03:37:30;21.60;99.90
13223;DHT22;6676;45.192;5.722;2023-09-08T03:40:21;21.50;99.90
13223;DHT22;6676;45.192;5.722;2023-09-08T03:43:13;21.40;99.90
13223;DHT22;6676;45.192;5.722;2023-09-08T03:46:04;21.30;99.90
13223;DHT22;6676;45.192;5.722;2023-09-08T03:48:56;21.30;99.90
13223;DHT22;6676;45.192;5.722;2023-09-08T03:51:49;21.30;99.90
13223;DHT22;6676;45.192;5.722;2023-09-08T03:54:41;21.20;99.90
13223;DHT22;6676;45.192;5.722;2023-09-08T03:57:32;21.20;99.90
13223;DHT22;6676;45.192;5.722;2023-09-08T04:00:23;21.10;99.90
13223;DHT22;6676;45.192;5.722;2023-09-08T04:03:15;21.10;99.90
13223;DHT22;6676;45.192;5.722;2023-09-08T04:06:07;21.10;99.90
13223;DHT22;6676;45.192;5.722;2023-09-08T04:08:59;21.10;99.90
13223;DHT22;6676;45.192;5.722;2023-09-08T04:11:51;21.10;99.90
13223;DHT22;6676;45.192;5.722;2023-09-08T04:14:42;21.10;99.90
13223;DHT22;6676;45.192;5.722;2023-09-08T04:17:34;21.00;99.90
13223;DHT22;6676;45.192;5.722;2023-09-08T04:20:26;21.00;99.90
13223;DHT22;6676;45.192;5.722;2023-09-08T04:23:18;21.00;99.90
13223;DHT22;6676;45.192;5.722;2023-09-08T04:26:10;20.90;99.90
13223;DHT22;6676;45.192;5.722;2023-09-08T04:29:01;20.80;99.90
13223;DHT22;6676;45.192;5.722;2023-09-08T04:31:53;20.80;99.90
13223;DHT22;6676;45.192;5.722;2023-09-08T04:34:44;20.80;99.90
13223;DHT22;6676;45.192;5.722;2023-09-08T04:37:35;20.70;99.90
13223;DHT22;6676;45.192;5.722;2023-09-08T04:40:27;20.60;99.90
13223;DHT22;6676;45.192;5.722;2023-09-08T04:43:18;20.60;99.90
13223;DHT22;6676;45.192;5.722;2023-09-08T04:46:10;20.60;99.90
13223;DHT22;6676;45.192;5.722;2023-09-08T04:49:01;20.60;99.90
13223;DHT22;6676;45.192;5.722;2023-09-08T04:51:54;20.70;99.90
13223;DHT22;6676;45.192;5.722;2023-09-08T04:54:47;20.70;99.90
13223;DHT22;6676;45.192;5.722;2023-09-08T04:57:38;20.70;99.90
13223;DHT22;6676;45.192;5.722;2023-09-08T05:00:30;20.70;99.90
13223;DHT22;6676;45.192;5.722;2023-09-08T05:03:24;20.70;99.90
13223;DHT22;6676;45.192;5.722;2023-09-08T05:06:16;20.70;99.90
13223;DHT22;6676;45.192;5.722;2023-09-08T05:09:08;20.70;99.90
13223;DHT22;6676;45.192;5.722;2023-09-08T05:11:59;20.70;99.90
13223;DHT22;6676;45.192;5.722;2023-09-08T05:14:51;20.70;99.90
13223;DHT22;6676;45.192;5.722;2023-09-08T05:17:45;20.70;99.90
13223;DHT22;6676;45.192;5.722;2023-09-08T05:20:38;20.70;99.90
13223;DHT22;6676;45.192;5.722;2023-09-08T05:23:29;20.60;99.90
13223;DHT22;6676;45.192;5.722;2023-09-08T05:26:21;20.50;99.90
13223;DHT22;6676;45.192;5.722;2023-09-08T05:29:13;20.40;99.90
13223;DHT22;6676;45.192;5.722;2023-09-08T05:32:05;20.40;99.90
13223;DHT22;6676;45.192;5.722;2023-09-08T05:34:56;20.40;99.90
13223;DHT22;6676;45.192;5.722;2023-09-08T05:37:48;20.40;99.90
13223;DHT22;6676;45.192;5.722;2023-09-08T05:40:39;20.40;99.90
13223;DHT22;6676;45.192;5.722;2023-09-08T05:43:30;20.50;99.90
13223;DHT22;6676;45.192;5.722;2023-09-08T05:46:23;20.50;99.90
13223;DHT22;6676;45.192;5.722;2023-09-08T05:49:15;20.60;99.90
13223;DHT22;6676;45.192;5.722;2023-09-08T05:52:08;20.60;99.90
13223;DHT22;6676;45.192;5.722;2023-09-08T05:55:00;20.70;99.90
13223;DHT22;6676;45.192;5.722;2023-09-08T05:57:53;20.70;99.90
13223;DHT22;6676;45.192;5.722;2023-09-08T06:00:44;20.80;99.90
13223;DHT22;6676;45.192;5.722;2023-09-08T06:03:36;20.80;99.90
13223;DHT22;6676;45.192;5.722;2023-09-08T06:06:28;20.80;99.90
13223;DHT22;6676;45.192;5.722;2023-09-08T06:09:20;20.80;99.90
13223;DHT22;6676;45.192;5.722;2023-09-08T06:12:12;20.80;99.90
13223;DHT22;6676;45.192;5.722;2023-09-08T06:15:05;20.90;99.90
13223;DHT22;6676;45.192;5.722;2023-09-08T06:17:57;20.90;99.90
13223;DHT22;6676;45.192;5.722;2023-09-08T06:20:49;20.90;99.90
13223;DHT22;6676;45.192;5.722;2023-09-08T06:23:40;20.90;99.90
13223;DHT22;6676;45.192;5.722;2023-09-08T06:26:32;20.90;99.90
13223;DHT22;6676;45.192;5.722;2023-09-08T06:29:24;21.00;99.90
13223;DHT22;6676;45.192;5.722;2023-09-08T06:32:15;21.00;99.90
13223;DHT22;6676;45.192;5.722;2023-09-08T06:35:08;21.10;99.90
13223;DHT22;6676;45.192;5.722;2023-09-08T06:38:00;21.20;99.90
13223;DHT22;6676;45.192;5.722;2023-09-08T06:40:52;21.20;99.90
13223;DHT22;6676;45.192;5.722;2023-09-08T06:43:44;21.30;99.90
13223;DHT22;6676;45.192;5.722;2023-09-08T06:46:37;21.40;99.90
13223;DHT22;6676;45.192;5.722;2023-09-08T06:49:30;21.40;99.90
13223;DHT22;6676;45.192;5.722;2023-09-08T06:52:22;21.50;99.90
13223;DHT22;6676;45.192;5.722;2023-09-08T06:55:13;21.50;99.90
13223;DHT22;6676;45.192;5.722;2023-09-08T06:58:06;21.60;99.90
13223;DHT22;6676;45.192;5.722;2023-09-08T07:00:58;21.70;99.90
13223;DHT22;6676;45.192;5.722;2023-09-08T07:03:50;21.70;99.90
13223;DHT22;6676;45.192;5.722;2023-09-08T07:06:42;21.70;99.90
13223;DHT22;6676;45.192;5.722;2023-09-08T07:09:35;21.70;99.90
13223;DHT22;6676;45.192;5.722;2023-09-08T07:12:28;21.80;99.90
13223;DHT22;6676;45.192;5.722;2023-09-08T07:15:20;21.80;99.90
13223;DHT22;6676;45.192;5.722;2023-09-08T07:18:12;21.80;99.90
13223;DHT22;6676;45.192;5.722;2023-09-08T07:21:04;22.00;99.90
13223;DHT22;6676;45.192;5.722;2023-09-08T07:23:56;22.00;99.90
13223;DHT22;6676;45.192;5.722;2023-09-08T07:26:48;22.10;99.90
13223;DHT22;6676;45.192;5.722;2023-09-08T07:29:41;22.30;99.90
13223;DHT22;6676;45.192;5.722;2023-09-08T07:32:32;22.30;99.90
13223;DHT22;6676;45.192;5.722;2023-09-08T07:35:24;22.30;99.90
13223;DHT22;6676;45.192;5.722;2023-09-08T07:38:15;22.40;99.90
13223;DHT22;6676;45.192;5.722;2023-09-08T07:41:07;22.50;99.90
13223;DHT22;6676;45.192;5.722;2023-09-08T07:43:59;22.50;99.90
13223;DHT22;6676;45.192;5.722;2023-09-08T07:46:51;22.60;99.90
13223;DHT22;6676;45.192;5.722;2023-09-08T07:49:44;22.60;99.90
13223;DHT22;6676;45.192;5.722;2023-09-08T07:52:36;22.70;99.90
13223;DHT22;6676;45.192;5.722;2023-09-08T07:55:27;22.80;99.90
13223;DHT22;6676;45.192;5.722;2023-09-08T07:58:19;22.90;99.90
13223;DHT22;6676;45.192;5.722;2023-09-08T08:01:12;22.90;99.90
13223;DHT22;6676;45.192;5.722;2023-09-08T08:04:04;23.00;99.90
13223;DHT22;6676;45.192;5.722;2023-09-08T08:06:55;23.10;99.90
13223;DHT22;6676;45.192;5.722;2023-09-08T08:09:47;23.10;99.90
13223;DHT22;6676;45.192;5.722;2023-09-08T08:12:39;23.10;99.90
13223;DHT22;6676;45.192;5.722;2023-09-08T08:15:37;23.10;99.90
13223;DHT22;6676;45.192;5.722;2023-09-08T08:18:28;23.30;99.90
13223;DHT22;6676;45.192;5.722;2023-09-08T08:21:20;23.40;99.90
13223;DHT22;6676;45.192;5.722;2023-09-08T08:24:12;23.40;99.90
13223;DHT22;6676;45.192;5.722;2023-09-08T08:27:06;23.60;99.90
13223;DHT22;6676;45.192;5.722;2023-09-08T08:29:57;23.70;99.90
13223;DHT22;6676;45.192;5.722;2023-09-08T08:32:51;23.80;99.90
13223;DHT22;6676;45.192;5.722;2023-09-08T08:35:50;23.90;99.90
13223;DHT22;6676;45.192;5.722;2023-09-08T08:38:43;23.90;99.90
13223;DHT22;6676;45.192;5.722;2023-09-08T08:41:35;23.90;99.90
13223;DHT22;6676;45.192;5.722;2023-09-08T08:44:28;24.00;99.90
13223;DHT22;6676;45.192;5.722;2023-09-08T08:47:20;23.90;99.90
13223;DHT22;6676;45.192;5.722;2023-09-08T08:50:12;24.00;99.90
13223;DHT22;6676;45.192;5.722;2023-09-08T08:53:04;24.10;99.90
13223;DHT22;6676;45.192;5.722;2023-09-08T08:55:57;24.20;99.90
13223;DHT22;6676;45.192;5.722;2023-09-08T08:58:50;24.20;99.90
13223;DHT22;6676;45.192;5.722;2023-09-08T09:01:42;24.30;99.90
13223;DHT22;6676;45.192;5.722;2023-09-08T09:04:35;24.30;99.90
13223;DHT22;6676;45.192;5.722;2023-09-08T09:07:28;24.40;99.90
13223;DHT22;6676;45.192;5.722;2023-09-08T09:10:20;24.50;99.90
13223;DHT22;6676;45.192;5.722;2023-09-08T09:13:11;24.60;99.90
13223;DHT22;6676;45.192;5.722;2023-09-08T09:16:03;24.70;99.90
13223;DHT22;6676;45.192;5.722;2023-09-08T09:19:00;24.70;99.90
13223;DHT22;6676;45.192;5.722;2023-09-08T09:21:51;24.70;99.90
13223;DHT22;6676;45.192;5.722;2023-09-08T09:24:44;24.80;99.90
13223;DHT22;6676;45.192;5.722;2023-09-08T09:27:36;24.90;99.90
13223;DHT22;6676;45.192;5.722;2023-09-08T09:30:46;25.10;99.90
13223;DHT22;6676;45.192;5.722;2023-09-08T09:33:38;25.10;99.90
13223;DHT22;6676;45.192;5.722;2023-09-08T09:36:30;25.20;99.90
13223;DHT22;6676;45.192;5.722;2023-09-08T09:39:22;25.20;99.90
13223;DHT22;6676;45.192;5.722;2023-09-08T09:42:14;25.30;99.90
13223;DHT22;6676;45.192;5.722;2023-09-08T09:45:09;25.30;99.90
13223;DHT22;6676;45.192;5.722;2023-09-08T09:48:00;25.40;99.90
13223;DHT22;6676;45.192;5.722;2023-09-08T09:50:52;25.50;99.90
13223;DHT22;6676;45.192;5.722;2023-09-08T09:53:44;25.60;99.90
13223;DHT22;6676;45.192;5.722;2023-09-08T09:56:40;25.60;99.90
13223;DHT22;6676;45.192;5.722;2023-09-08T09:59:33;25.70;99.90
13223;DHT22;6676;45.192;5.722;2023-09-08T10:02:27;25.80;99.90
13223;DHT22;6676;45.192;5.722;2023-09-08T10:05:20;25.90;99.90
13223;DHT22;6676;45.192;5.722;2023-09-08T10:08:15;26.00;99.90
13223;DHT22;6676;45.192;5.722;2023-09-08T10:11:08;26.10;99.90
13223;DHT22;6676;45.192;5.722;2023-09-08T10:14:00;26.10;99.90
13223;DHT22;6676;45.192;5.722;2023-09-08T10:16:53;26.20;99.90
13223;DHT22;6676;45.192;5.722;2023-09-08T10:19:46;26.30;99.90
13223;DHT22;6676;45.192;5.722;2023-09-08T10:22:42;26.40;99.90
13223;DHT22;6676;45.192;5.722;2023-09-08T10:25:37;26.40;99.90
13223;DHT22;6676;45.192;5.722;2023-09-08T10:28:28;26.50;99.90
13223;DHT22;6676;45.192;5.722;2023-09-08T10:31:21;26.70;99.90
13223;DHT22;6676;45.192;5.722;2023-09-08T10:34:14;26.80;99.90
13223;DHT22;6676;45.192;5.722;2023-09-08T10:37:20;26.80;99.90
13223;DHT22;6676;45.192;5.722;2023-09-08T10:40:24;26.90;99.90
13223;DHT22;6676;45.192;5.722;2023-09-08T10:43:18;26.90;99.90
13223;DHT22;6676;45.192;5.722;2023-09-08T10:46:12;27.00;99.90
13223;DHT22;6676;45.192;5.722;2023-09-08T10:49:05;27.20;99.90
13223;DHT22;6676;45.192;5.722;2023-09-08T10:52:10;27.20;99.90
13223;DHT22;6676;45.192;5.722;2023-09-08T10:55:02;27.30;99.90
13223;DHT22;6676;45.192;5.722;2023-09-08T10:57:57;27.40;99.90
13223;DHT22;6676;45.192;5.722;2023-09-08T11:00:51;27.50;99.90
13223;DHT22;6676;45.192;5.722;2023-09-08T11:03:47;27.70;99.90
13223;DHT22;6676;45.192;5.722;2023-09-08T11:06:40;27.80;99.90
13223;DHT22;6676;45.192;5.722;2023-09-08T11:09:36;28.00;99.90
13223;DHT22;6676;45.192;5.722;2023-09-08T11:12:28;28.10;99.90
13223;DHT22;6676;45.192;5.722;2023-09-08T11:15:20;28.20;99.90
13223;DHT22;6676;45.192;5.722;2023-09-08T11:18:12;28.30;99.90
13223;DHT22;6676;45.192;5.722;2023-09-08T11:21:07;28.40;99.90
13223;DHT22;6676;45.192;5.722;2023-09-08T11:23:57;28.40;99.90
13223;DHT22;6676;45.192;5.722;2023-09-08T11:26:49;28.40;99.80
13223;DHT22;6676;45.192;5.722;2023-09-08T11:29:41;28.50;99.40
13223;DHT22;6676;45.192;5.722;2023-09-08T11:32:34;28.60;98.80
13223;DHT22;6676;45.192;5.722;2023-09-08T11:35:28;28.60;98.40
13223;DHT22;6676;45.192;5.722;2023-09-08T11:38:24;28.50;98.80
13223;DHT22;6676;45.192;5.722;2023-09-08T11:41:17;28.60;98.10
13223;DHT22;6676;45.192;5.722;2023-09-08T11:44:14;28.50;98.30
13223;DHT22;6676;45.192;5.722;2023-09-08T11:47:04;28.60;98.50
13223;DHT22;6676;45.192;5.722;2023-09-08T11:49:56;28.70;98.50
13223;DHT22;6676;45.192;5.722;2023-09-08T11:52:49;28.90;98.50
13223;DHT22;6676;45.192;5.722;2023-09-08T11:55:41;28.80;98.80
13223;DHT22;6676;45.192;5.722;2023-09-08T11:58:32;28.90;99.00
13223;DHT22;6676;45.192;5.722;2023-09-08T12:01:25;28.90;98.60
13223;DHT22;6676;45.192;5.722;2023-09-08T12:04:20;29.00;99.10
13223;DHT22;6676;45.192;5.722;2023-09-08T12:07:14;29.10;99.10
13223;DHT22;6676;45.192;5.722;2023-09-08T12:10:10;29.20;98.70
13223;DHT22;6676;45.192;5.722;2023-09-08T12:13:03;29.20;98.90
13223;DHT22;6676;45.192;5.722;2023-09-08T12:15:54;29.20;98.80
13223;DHT22;6676;45.192;5.722;2023-09-08T12:18:45;29.30;98.10
13223;DHT22;6676;45.192;5.722;2023-09-08T12:21:54;29.30;98.80
13223;DHT22;6676;45.192;5.722;2023-09-08T12:24:56;29.40;98.40
13223;DHT22;6676;45.192;5.722;2023-09-08T12:27:44;29.40;97.60
13223;DHT22;6676;45.192;5.722;2023-09-08T12:30:35;29.40;95.80
13223;DHT22;6676;45.192;5.722;2023-09-08T12:33:28;29.40;95.80
13223;DHT22;6676;45.192;5.722;2023-09-08T12:36:20;29.60;96.00
13223;DHT22;6676;45.192;5.722;2023-09-08T12:39:11;29.60;95.70
13223;DHT22;6676;45.192;5.722;2023-09-08T12:42:03;29.70;95.30
13223;DHT22;6676;45.192;5.722;2023-09-08T12:44:55;29.60;95.20
13223;DHT22;6676;45.192;5.722;2023-09-08T12:47:46;29.70;94.30
13223;DHT22;6676;45.192;5.722;2023-09-08T12:50:38;29.70;94.40
13223;DHT22;6676;45.192;5.722;2023-09-08T12:53:32;29.80;93.30
13223;DHT22;6676;45.192;5.722;2023-09-08T12:56:24;29.90;92.00
13223;DHT22;6676;45.192;5.722;2023-09-08T12:59:15;29.80;92.50
13223;DHT22;6676;45.192;5.722;2023-09-08T13:02:06;29.80;91.80
13223;DHT22;6676;45.192;5.722;2023-09-08T13:04:58;29.80;92.20
13223;DHT22;6676;45.192;5.722;2023-09-08T13:07:50;29.90;92.80
13223;DHT22;6676;45.192;5.722;2023-09-08T13:10:41;30.00;92.40
13223;DHT22;6676;45.192;5.722;2023-09-08T13:13:33;30.00;92.50
13223;DHT22;6676;45.192;5.722;2023-09-08T13:16:24;30.00;91.80
13223;DHT22;6676;45.192;5.722;2023-09-08T13:19:16;30.00;92.00
13223;DHT22;6676;45.192;5.722;2023-09-08T13:22:09;30.00;92.10
13223;DHT22;6676;45.192;5.722;2023-09-08T13:25:00;30.20;92.60
13223;DHT22;6676;45.192;5.722;2023-09-08T13:27:51;30.10;92.70
13223;DHT22;6676;45.192;5.722;2023-09-08T13:30:43;30.10;93.00
13223;DHT22;6676;45.192;5.722;2023-09-08T13:33:36;30.10;92.60
13223;DHT22;6676;45.192;5.722;2023-09-08T13:36:30;30.20;91.40
13223;DHT22;6676;45.192;5.722;2023-09-08T13:39:22;30.30;91.60
13223;DHT22;6676;45.192;5.722;2023-09-08T13:42:13;30.30;92.40
13223;DHT22;6676;45.192;5.722;2023-09-08T13:45:07;30.30;93.00
13223;DHT22;6676;45.192;5.722;2023-09-08T13:47:58;30.40;93.80
13223;DHT22;6676;45.192;5.722;2023-09-08T13:50:51;30.40;93.50
13223;DHT22;6676;45.192;5.722;2023-09-08T13:53:44;30.40;93.10
13223;DHT22;6676;45.192;5.722;2023-09-08T13:56:41;30.50;93.00
13223;DHT22;6676;45.192;5.722;2023-09-08T13:59:34;30.50;93.50
13223;DHT22;6676;45.192;5.722;2023-09-08T14:02:26;30.60;93.40
13223;DHT22;6676;45.192;5.722;2023-09-08T14:05:19;30.70;93.10
13223;DHT22;6676;45.192;5.722;2023-09-08T14:08:12;30.70;93.30
13223;DHT22;6676;45.192;5.722;2023-09-08T14:11:05;31.20;92.70
13223;DHT22;6676;45.192;5.722;2023-09-08T14:13:58;31.80;91.90
13223;DHT22;6676;45.192;5.722;2023-09-08T14:16:50;32.30;91.50
13223;DHT22;6676;45.192;5.722;2023-09-08T14:19:42;32.40;90.80
13223;DHT22;6676;45.192;5.722;2023-09-08T14:22:33;32.80;90.90
13223;DHT22;6676;45.192;5.722;2023-09-08T14:25:25;33.30;90.00
13223;DHT22;6676;45.192;5.722;2023-09-08T14:28:16;33.20;89.20
13223;DHT22;6676;45.192;5.722;2023-09-08T14:31:07;33.30;88.00
13223;DHT22;6676;45.192;5.722;2023-09-08T14:33:59;33.40;87.70
13223;DHT22;6676;45.192;5.722;2023-09-08T14:36:50;33.50;87.40
13223;DHT22;6676;45.192;5.722;2023-09-08T14:39:42;33.70;87.10
13223;DHT22;6676;45.192;5.722;2023-09-08T14:42:33;33.90;85.80
13223;DHT22;6676;45.192;5.722;2023-09-08T14:45:25;33.90;85.20
13223;DHT22;6676;45.192;5.722;2023-09-08T14:48:17;33.70;84.70
13223;DHT22;6676;45.192;5.722;2023-09-08T14:51:10;33.80;84.40
13223;DHT22;6676;45.192;5.722;2023-09-08T14:54:02;34.30;84.60
13223;DHT22;6676;45.192;5.722;2023-09-08T14:56:53;34.40;82.90
13223;DHT22;6676;45.192;5.722;2023-09-08T14:59:45;34.20;82.40
13223;DHT22;6676;45.192;5.722;2023-09-08T15:02:36;34.20;82.20
13223;DHT22;6676;45.192;5.722;2023-09-08T15:05:27;34.30;81.50
13223;DHT22;6676;45.192;5.722;2023-09-08T15:08:19;34.50;80.60
13223;DHT22;6676;45.192;5.722;2023-09-08T15:11:10;34.70;80.80
13223;DHT22;6676;45.192;5.722;2023-09-08T15:14:02;34.60;80.00
13223;DHT22;6676;45.192;5.722;2023-09-08T15:16:54;34.50;79.50
13223;DHT22;6676;45.192;5.722;2023-09-08T15:19:46;34.80;78.40
13223;DHT22;6676;45.192;5.722;2023-09-08T15:22:37;34.80;78.60
13223;DHT22;6676;45.192;5.722;2023-09-08T15:25:28;35.00;78.10
13223;DHT22;6676;45.192;5.722;2023-09-08T15:28:21;34.80;76.90
13223;DHT22;6676;45.192;5.722;2023-09-08T15:31:15;34.70;76.80
13223;DHT22;6676;45.192;5.722;2023-09-08T15:34:07;34.80;77.00
13223;DHT22;6676;45.192;5.722;2023-09-08T15:37:00;34.70;76.30
13223;DHT22;6676;45.192;5.722;2023-09-08T15:39:52;34.60;76.70
13223;DHT22;6676;45.192;5.722;2023-09-08T15:42:44;34.60;76.90
13223;DHT22;6676;45.192;5.722;2023-09-08T15:45:35;34.40;77.30
13223;DHT22;6676;45.192;5.722;2023-09-08T15:48:27;34.60;76.50
13223;DHT22;6676;45.192;5.722;2023-09-08T15:51:18;34.90;75.80
13223;DHT22;6676;45.192;5.722;2023-09-08T15:54:09;35.20;74.40
13223;DHT22;6676;45.192;5.722;2023-09-08T15:57:02;35.10;74.80
13223;DHT22;6676;45.192;5.722;2023-09-08T15:59:54;35.50;74.30
13223;DHT22;6676;45.192;5.722;2023-09-08T16:02:45;35.40;73.70
13223;DHT22;6676;45.192;5.722;2023-09-08T16:05:37;35.30;73.50
13223;DHT22;6676;45.192;5.722;2023-09-08T16:08:28;35.50;73.30
13223;DHT22;6676;45.192;5.722;2023-09-08T16:11:19;35.80;72.50
13223;DHT22;6676;45.192;5.722;2023-09-08T16:14:11;35.70;72.50
13223;DHT22;6676;45.192;5.722;2023-09-08T16:17:03;35.50;72.20
13223;DHT22;6676;45.192;5.722;2023-09-08T16:19:54;35.30;72.90
13223;DHT22;6676;45.192;5.722;2023-09-08T16:22:46;35.50;72.50
13223;DHT22;6676;45.192;5.722;2023-09-08T16:25:37;35.70;71.60
13223;DHT22;6676;45.192;5.722;2023-09-08T16:28:29;35.70;71.40
13223;DHT22;6676;45.192;5.722;2023-09-08T16:31:20;35.40;71.40
13223;DHT22;6676;45.192;5.722;2023-09-08T16:34:12;35.60;71.20
13223;DHT22;6676;45.192;5.722;2023-09-08T16:37:04;35.40;71.30
13223;DHT22;6676;45.192;5.722;2023-09-08T16:39:55;35.10;71.40
13223;DHT22;6676;45.192;5.722;2023-09-08T16:42:47;34.50;72.20
13223;DHT22;6676;45.192;5.722;2023-09-08T16:45:38;34.00;73.70
13223;DHT22;6676;45.192;5.722;2023-09-08T16:48:30;33.60;75.20
13223;DHT22;6676;45.192;5.722;2023-09-08T16:51:22;33.30;75.50
13223;DHT22;6676;45.192;5.722;2023-09-08T16:54:13;33.10;76.50
13223;DHT22;6676;45.192;5.722;2023-09-08T16:57:05;32.80;77.60
13223;DHT22;6676;45.192;5.722;2023-09-08T16:59:56;32.60;77.40
13223;DHT22;6676;45.192;5.722;2023-09-08T17:02:48;32.30;78.10
13223;DHT22;6676;45.192;5.722;2023-09-08T17:05:39;32.00;78.20
13223;DHT22;6676;45.192;5.722;2023-09-08T17:08:33;31.70;78.90
13223;DHT22;6676;45.192;5.722;2023-09-08T17:11:24;31.40;79.60
13223;DHT22;6676;45.192;5.722;2023-09-08T17:14:16;31.10;80.30
13223;DHT22;6676;45.192;5.722;2023-09-08T17:17:07;30.90;81.00
13223;DHT22;6676;45.192;5.722;2023-09-08T17:19:58;30.70;81.50
13223;DHT22;6676;45.192;5.722;2023-09-08T17:22:50;30.40;82.10
13223;DHT22;6676;45.192;5.722;2023-09-08T17:25:41;30.30;82.50
13223;DHT22;6676;45.192;5.722;2023-09-08T17:28:33;30.10;83.20
13223;DHT22;6676;45.192;5.722;2023-09-08T17:31:25;30.10;83.40
13223;DHT22;6676;45.192;5.722;2023-09-08T17:34:19;30.00;84.00
13223;DHT22;6676;45.192;5.722;2023-09-08T17:37:11;29.80;84.30
13223;DHT22;6676;45.192;5.722;2023-09-08T17:40:04;29.80;84.90
13223;DHT22;6676;45.192;5.722;2023-09-08T17:42:56;29.60;85.50
13223;DHT22;6676;45.192;5.722;2023-09-08T17:45:47;29.50;86.60
13223;DHT22;6676;45.192;5.722;2023-09-08T17:48:39;29.40;87.40
13223;DHT22;6676;45.192;5.722;2023-09-08T17:51:31;29.30;88.20
13223;DHT22;6676;45.192;5.722;2023-09-08T17:54:22;29.20;89.10
13223;DHT22;6676;45.192;5.722;2023-09-08T17:57:14;29.00;90.00
13223;DHT22;6676;45.192;5.722;2023-09-08T18:00:07;28.90;90.20
13223;DHT22;6676;45.192;5.722;2023-09-08T18:02:59;28.80;90.70
13223;DHT22;6676;45.192;5.722;2023-09-08T18:05:51;28.70;91.00
13223;DHT22;6676;45.192;5.722;2023-09-08T18:08:42;28.60;91.40
13223;DHT22;6676;45.192;5.722;2023-09-08T18:11:37;28.60;91.80
13223;DHT22;6676;45.192;5.722;2023-09-08T18:14:28;28.50;92.40
13223;DHT22;6676;45.192;5.722;2023-09-08T18:17:19;28.40;92.90
13223;DHT22;6676;45.192;5.722;2023-09-08T18:20:12;28.20;93.40
13223;DHT22;6676;45.192;5.722;2023-09-08T18:23:05;28.10;94.20
13223;DHT22;6676;45.192;5.722;2023-09-08T18:25:56;28.00;94.70
13223;DHT22;6676;45.192;5.722;2023-09-08T18:28:48;27.90;95.20